createdAt,value
2023-02-24T00:17:26.842Z,5.4
2023-02-24T00:19:53.103Z,5.4
2023-02-24T00:21:05.980Z,5.4
2023-02-24T00:24:44.843Z,5.4
2023-02-24T00:25:58.209Z,5.3
2023-02-24T00:29:37.049Z,5.3
2023-02-24T00:36:55.119Z,5.2
2023-02-24T00:45:25.809Z,5.2
2023-02-24T00:58:49.286Z,4.9
2023-02-24T01:00:01.867Z,4.9
2023-02-24T01:13:24.889Z,4.9
2023-02-24T01:19:29.849Z,4.8
2023-02-24T01:21:56.977Z,4.8
2023-02-24T01:23:09.472Z,4.8
2023-02-24T01:24:21.782Z,4.8
2023-02-24T01:25:34.912Z,4.8
2023-02-24T01:32:53.329Z,4.7
2023-02-24T01:47:28.950Z,4.7
2023-02-24T02:04:31.563Z,4.6
2023-02-24T02:06:56.942Z,4.6
2023-02-24T02:19:07.049Z,4.6
2023-02-24T02:31:17.059Z,4.4
2023-02-24T02:51:57.916Z,4.1
2023-02-24T03:51:35.080Z,3.7
2023-02-24T03:56:27.260Z,3.7
2023-02-24T04:06:11.894Z,3.7
2023-02-24T04:13:28.990Z,3.7
2023-02-24T04:28:05.138Z,3.8
2023-02-24T04:32:57.323Z,3.8
2023-02-24T04:40:14.884Z,3.8
2023-02-24T04:43:54.405Z,3.7
2023-02-24T04:45:07.421Z,3.7
2023-02-24T04:49:58.973Z,3.8
2023-02-24T04:54:50.997Z,3.8
2023-02-24T05:13:06.869Z,3.8
2023-02-24T05:14:19.271Z,3.8
2023-02-24T06:16:22.067Z,3.7
2023-02-24T06:26:06.447Z,3.8
2023-02-24T07:13:33.137Z,4.1
2023-02-24T07:31:48.562Z,4.2
2023-02-24T07:42:45.148Z,4.3
2023-02-24T07:59:48.248Z,4.6
2023-02-24T08:10:44.485Z,4.6
2023-02-24T08:11:57.345Z,4.6
2023-02-24T08:19:15.028Z,4.6
2023-02-24T08:25:20.683Z,4.6
2023-02-24T08:32:38.874Z,4.7
2023-02-24T08:50:53.393Z,4.9
2023-02-24T08:56:58.831Z,4.9
2023-02-24T09:27:23.405Z,5.3
2023-02-24T10:14:51.475Z,5.6
2023-02-24T10:24:34.361Z,5.6
2023-02-24T10:25:47.204Z,5.6
2023-02-24T10:29:26.169Z,5.6
2023-02-24T11:04:43.324Z,5
2023-02-24T11:05:56.398Z,5
2023-02-24T11:12:01.499Z,4.9
2023-02-24T11:18:06.748Z,4.9
2023-02-24T11:19:19.455Z,4.8
2023-02-24T11:20:46.398Z,4.8
2023-02-24T11:21:45.478Z,4.8
2023-02-24T11:22:58.391Z,4.8
2023-02-24T11:27:50.472Z,4.8
2023-02-24T11:29:03.331Z,4.8
2023-02-24T11:30:17.093Z,4.7
2023-02-24T11:31:29.479Z,4.7
2023-02-24T11:32:42.545Z,4.7
2023-02-24T11:33:55.472Z,4.7
2023-02-24T11:35:08.473Z,4.7
2023-02-24T11:36:21.481Z,4.6
2023-02-24T11:37:34.519Z,4.6
2023-02-24T11:38:47.449Z,4.4
2023-02-24T11:40:00.755Z,4.4
2023-02-24T11:41:13.709Z,4.3
2023-02-24T11:42:26.462Z,4.3
2023-02-24T11:43:39.490Z,4.3
2023-02-24T11:44:52.557Z,4.3
2023-02-24T11:46:05.492Z,4.3
2023-02-24T11:47:18.487Z,4.3
2023-02-24T11:48:31.803Z,4.2
2023-02-24T11:49:44.518Z,4.1
2023-02-24T11:50:57.323Z,4.1
2023-02-24T11:52:10.480Z,4.1
2023-02-24T11:53:23.454Z,4.1
2023-02-24T11:54:36.490Z,3.9
2023-02-24T11:55:49.613Z,3.9
2023-02-24T11:57:02.495Z,3.9
2023-02-24T11:58:15.477Z,4
2023-02-24T11:59:28.466Z,4
2023-02-24T12:00:41.490Z,4
2023-02-24T12:01:54.475Z,4
2023-02-24T12:03:07.564Z,3.9
2023-02-24T12:04:21.080Z,3.8
2023-02-24T12:05:33.473Z,3.8
2023-02-24T12:06:46.541Z,4
2023-02-24T12:07:59.350Z,4
2023-02-24T12:09:12.450Z,3.8
2023-02-24T12:10:25.447Z,3.8
2023-02-24T12:11:38.487Z,3.8
2023-02-24T12:12:51.424Z,3.8
2023-02-24T12:14:04.557Z,3.7
2023-02-24T12:15:17.472Z,3.7
2023-02-24T12:16:30.553Z,3.7
2023-02-24T12:17:43.500Z,3.7
2023-02-24T12:18:56.446Z,3.7
2023-02-24T12:20:09.362Z,3.7
2023-02-24T12:21:22.888Z,3.7
2023-02-24T12:22:35.543Z,3.7
2023-02-24T12:23:48.494Z,3.7
2023-02-24T12:25:01.528Z,3.7
2023-02-24T12:26:14.482Z,3.7
2023-02-24T12:27:27.485Z,3.7
2023-02-24T12:28:40.659Z,3.7
2023-02-24T12:29:53.200Z,3.7
2023-02-24T12:31:06.571Z,3.7
2023-02-24T12:32:19.560Z,3.7
2023-02-24T12:33:32.525Z,3.7
2023-02-24T12:34:45.488Z,3.7
2023-02-24T12:35:58.495Z,3.7
2023-02-24T12:37:11.521Z,3.7
2023-02-24T12:38:24.496Z,3.7
2023-02-24T12:39:37.612Z,3.7
2023-02-24T12:40:50.517Z,3.7
2023-02-24T12:42:03.502Z,3.7
2023-02-24T12:43:16.491Z,3.7
2023-02-24T12:44:29.506Z,3.7
2023-02-24T12:45:42.530Z,3.7
2023-02-24T12:46:55.565Z,3.7
2023-02-24T12:48:08.515Z,3.7
2023-02-24T12:49:21.501Z,3.7
2023-02-24T12:50:34.491Z,3.7
2023-02-24T12:51:47.529Z,3.7
2023-02-24T12:53:00.492Z,3.7
2023-02-24T12:54:13.492Z,3.7
2023-02-24T12:55:26.491Z,3.7
2023-02-24T12:56:39.657Z,3.7
2023-02-24T12:57:52.482Z,3.7
2023-02-24T12:59:05.711Z,3.7
2023-02-24T13:00:18.660Z,3.7
2023-02-24T13:01:31.550Z,3.7
2023-02-24T13:02:44.523Z,3.7
2023-02-24T13:03:57.550Z,3.7
2023-02-24T13:05:10.591Z,3.7
2023-02-24T13:06:23.472Z,3.7
2023-02-24T13:07:36.517Z,3.7
2023-02-24T13:08:49.535Z,3.8
2023-02-24T13:10:02.517Z,3.8
2023-02-24T13:11:16.425Z,3.8
2023-02-24T13:12:28.503Z,3.8
2023-02-24T13:13:41.519Z,3.8
2023-02-24T13:14:54.660Z,3.8
2023-02-24T13:16:07.593Z,3.8
2023-02-24T13:17:20.507Z,3.8
2023-02-24T13:18:33.502Z,3.8
2023-02-24T13:19:46.538Z,3.8
2023-02-24T13:20:59.502Z,3.8
2023-02-24T13:22:12.520Z,3.8
2023-02-24T13:23:25.522Z,3.8
2023-02-24T13:24:38.523Z,3.8
2023-02-24T13:25:51.509Z,3.8
2023-02-24T13:27:04.696Z,3.8
2023-02-24T13:28:17.510Z,3.8
2023-02-24T13:29:30.597Z,3.8
2023-02-24T13:30:43.570Z,3.8
2023-02-24T13:31:56.603Z,3.8
2023-02-24T13:33:09.545Z,3.8
2023-02-24T13:34:22.521Z,3.8
2023-02-24T13:35:35.530Z,3.8
2023-02-24T13:36:48.553Z,3.8
2023-02-24T13:38:01.530Z,3.8
2023-02-24T13:39:14.509Z,3.8
2023-02-24T13:40:27.491Z,3.8
2023-02-24T13:41:40.535Z,3.8
2023-02-24T13:42:53.487Z,3.8
2023-02-24T13:44:06.497Z,3.8
2023-02-24T13:45:19.562Z,3.8
2023-02-24T13:46:32.527Z,3.8
2023-02-24T13:47:45.619Z,3.8
2023-02-24T13:48:58.436Z,3.8
2023-02-24T13:50:11.555Z,3.8
2023-02-24T13:51:24.741Z,4
2023-02-24T13:52:37.661Z,4
2023-02-24T13:53:50.567Z,4
2023-02-24T13:55:03.558Z,4
2023-02-24T13:56:16.555Z,4
2023-02-24T13:57:29.543Z,4
2023-02-24T13:58:42.517Z,4
2023-02-24T13:59:57.509Z,4
2023-02-24T14:01:08.642Z,3.9
2023-02-24T14:02:21.590Z,3.9
2023-02-24T14:03:34.593Z,3.9
2023-02-24T14:04:47.544Z,3.9
2023-02-24T14:06:00.553Z,3.9
2023-02-24T14:07:13.550Z,3.9
2023-02-24T14:08:26.564Z,3.9
2023-02-24T14:09:39.538Z,3.9
2023-02-24T14:10:52.527Z,3.9
2023-02-24T14:12:05.715Z,3.9
2023-02-24T14:13:18.560Z,4.1
2023-02-24T14:14:31.588Z,4.1
2023-02-24T14:15:44.597Z,4.1
2023-02-24T14:16:57.566Z,4.1
2023-02-24T14:18:10.578Z,4.1
2023-02-24T14:19:23.528Z,4.1
2023-02-24T14:20:36.701Z,4.1
2023-02-24T14:21:49.582Z,4.1
2023-02-24T14:23:02.755Z,4.1
2023-02-24T14:24:15.565Z,4.1
2023-02-24T14:25:28.590Z,4.1
2023-02-24T14:26:41.579Z,4.1
2023-02-24T14:27:54.748Z,4.1
2023-02-24T14:29:07.538Z,4.1
2023-02-24T14:30:20.586Z,4.1
2023-02-24T14:31:33.656Z,4.1
2023-02-24T14:32:46.657Z,4.1
2023-02-24T14:33:59.765Z,4.1
2023-02-24T14:35:12.568Z,4.1
2023-02-24T14:36:25.686Z,4.1
2023-02-24T14:37:38.578Z,4.1
2023-02-24T14:38:51.595Z,4.1
2023-02-24T14:40:04.590Z,4.1
2023-02-24T14:41:17.455Z,4.1
2023-02-24T14:42:30.578Z,4.1
2023-02-24T14:43:43.784Z,4.1
2023-02-24T14:44:56.572Z,4.1
2023-02-24T14:46:09.663Z,4.2
2023-02-24T14:47:22.469Z,4.1
2023-02-24T14:48:35.563Z,4.1
2023-02-24T14:49:49.149Z,4.2
2023-02-24T14:51:01.573Z,4.2
2023-02-24T14:52:14.581Z,4.2
2023-02-24T14:53:27.529Z,4.2
2023-02-24T14:54:40.556Z,4.2
2023-02-24T14:55:53.558Z,4.2
2023-02-24T14:57:06.583Z,4.2
2023-02-24T14:58:19.554Z,4.2
2023-02-24T14:59:32.758Z,4.2
2023-02-24T15:00:45.583Z,4.2
2023-02-24T15:01:58.486Z,4.2
2023-02-24T15:03:11.790Z,4.2
2023-02-24T15:04:24.566Z,4.2
2023-02-24T15:05:37.433Z,4.2
2023-02-24T15:06:50.455Z,4.2
2023-02-24T15:08:03.738Z,4.2
2023-02-24T15:09:16.919Z,4.2
2023-02-24T15:10:29.571Z,4.2
2023-02-24T15:11:42.496Z,4.3
2023-02-24T15:12:55.744Z,4.3
2023-02-24T15:14:08.470Z,4.3
2023-02-24T15:15:21.565Z,4.3
2023-02-24T15:16:34.626Z,4.3
2023-02-24T15:17:47.551Z,4.3
2023-02-24T15:19:01.404Z,4.3
2023-02-24T15:20:13.540Z,4.3
2023-02-24T15:21:26.627Z,4.4
2023-02-24T15:22:39.598Z,4.4
2023-02-24T15:23:52.599Z,4.4
2023-02-24T15:25:05.586Z,4.4
2023-02-24T15:26:18.613Z,4.4
2023-02-24T15:27:31.577Z,4.4
2023-02-24T15:28:44.585Z,4.4
2023-02-24T15:29:57.660Z,4.5
2023-02-24T15:31:11.586Z,4.6
2023-02-24T15:32:23.724Z,4.6
2023-02-24T15:33:36.621Z,4.6
2023-02-24T15:34:49.604Z,4.7
2023-02-24T15:36:02.564Z,4.7
2023-02-24T15:37:15.604Z,4.7
2023-02-24T15:38:28.620Z,4.7
2023-02-24T15:39:41.611Z,4.8
2023-02-24T15:40:54.600Z,4.8
2023-02-24T15:42:07.617Z,4.8
2023-02-24T15:43:20.589Z,4.9
2023-02-24T15:44:33.606Z,4.9
2023-02-24T15:45:46.624Z,4.9
2023-02-24T15:46:59.675Z,4.9
2023-02-24T15:48:12.603Z,4.9
2023-02-24T15:49:25.613Z,4.9
2023-02-24T15:50:38.618Z,4.9
2023-02-24T15:51:51.603Z,4.9
2023-02-24T15:53:04.613Z,4.9
2023-02-24T15:54:17.578Z,4.9
2023-02-24T15:55:30.604Z,4.9
2023-02-24T15:56:43.634Z,4.9
2023-02-24T15:57:56.661Z,5
2023-02-24T15:59:09.653Z,5
2023-02-24T16:00:22.634Z,5
2023-02-24T16:01:35.619Z,5
2023-02-24T16:02:48.634Z,5
2023-02-24T16:04:01.713Z,5
2023-02-24T16:05:14.678Z,5
2023-02-24T16:06:27.591Z,5
2023-02-24T16:07:40.644Z,5
2023-02-24T16:08:53.603Z,5
2023-02-24T16:10:06.660Z,5
2023-02-24T16:11:19.667Z,5
2023-02-24T16:12:32.638Z,5
2023-02-24T16:13:45.667Z,5
2023-02-24T16:14:58.630Z,5
2023-02-24T16:16:11.776Z,5
2023-02-24T16:17:24.651Z,5
2023-02-24T16:18:37.653Z,5
2023-02-24T16:19:50.634Z,5
2023-02-24T16:21:03.735Z,5
2023-02-24T16:22:16.639Z,5
2023-02-24T16:23:29.815Z,5
2023-02-24T16:24:42.487Z,5
2023-02-24T16:25:55.516Z,5
2023-02-24T16:27:08.822Z,5
2023-02-24T16:28:21.641Z,5
2023-02-24T16:29:35.299Z,5
2023-02-24T16:30:47.751Z,5
2023-02-24T16:32:00.900Z,5
2023-02-24T16:33:13.914Z,5
2023-02-24T16:34:26.675Z,5
2023-02-24T16:35:39.533Z,5
2023-02-24T16:36:52.649Z,5
2023-02-24T16:38:05.674Z,5
2023-02-24T16:39:18.648Z,5
2023-02-24T16:40:31.657Z,5
2023-02-24T16:41:44.664Z,5
2023-02-24T16:42:57.998Z,5
2023-02-24T16:44:10.688Z,5
2023-02-24T16:45:23.935Z,4.9
2023-02-24T16:46:36.512Z,4.9
2023-02-24T16:47:49.604Z,4.9
2023-02-24T16:49:02.499Z,4.9
2023-02-24T16:50:15.531Z,4.9
2023-02-24T16:51:28.525Z,4.9
2023-02-24T16:52:41.675Z,4.9
2023-02-24T16:53:54.651Z,4.9
2023-02-24T16:55:07.785Z,4.9
2023-02-24T16:56:21.368Z,4.9
2023-02-24T16:57:33.978Z,4.9
2023-02-24T16:58:46.825Z,4.9
2023-02-24T16:59:59.751Z,4.9
2023-02-24T17:01:12.636Z,4.9
2023-02-24T17:02:25.681Z,4.9
2023-02-24T17:03:38.649Z,4.9
2023-02-24T17:04:51.658Z,4.9
2023-02-24T17:06:04.683Z,4.9
2023-02-24T17:07:17.640Z,4.9
2023-02-24T17:08:30.675Z,4.9
2023-02-24T17:09:43.582Z,4.9
2023-02-24T17:10:57.044Z,4.9
2023-02-24T17:12:09.690Z,4.9
2023-02-24T17:13:22.646Z,4.9
2023-02-24T17:14:35.353Z,4.9
2023-02-24T17:15:48.674Z,4.9
2023-02-24T17:17:02.102Z,4.9
2023-02-24T17:18:14.700Z,4.9
2023-02-24T17:19:27.576Z,4.9
2023-02-24T17:20:40.655Z,4.9
2023-02-24T17:21:53.640Z,4.9
2023-02-24T17:23:07.070Z,4.9
2023-02-24T17:24:19.715Z,4.8
2023-02-24T17:25:33.274Z,4.8
2023-02-24T17:26:45.838Z,4.8
2023-02-24T17:27:58.510Z,4.8
2023-02-24T17:29:11.853Z,4.8
2023-02-24T17:30:24.703Z,4.8
2023-02-24T17:31:37.801Z,4.8
2023-02-24T17:32:50.696Z,4.7
2023-02-24T17:34:05.971Z,4.7
2023-02-24T17:35:16.714Z,4.7
2023-02-24T17:36:30.002Z,4.8
2023-02-24T17:37:42.681Z,4.8
2023-02-24T17:38:55.711Z,4.8
2023-02-24T17:40:08.872Z,4.8
2023-02-24T17:41:22.348Z,4.8
2023-02-24T17:42:34.873Z,4.8
2023-02-24T17:43:47.647Z,4.8
2023-02-24T17:45:00.747Z,4.8
2023-02-24T17:46:13.735Z,4.8
2023-02-24T17:47:26.676Z,4.8
2023-02-24T17:48:39.679Z,4.8
2023-02-24T17:49:52.397Z,4.8
2023-02-24T17:51:05.864Z,4.8
2023-02-24T17:52:19.031Z,4.8
2023-02-24T17:53:31.854Z,4.8
2023-02-24T17:54:44.702Z,4.8
2023-02-24T17:56:02.481Z,4.8
2023-02-24T17:57:10.889Z,4.8
2023-02-24T17:58:23.674Z,4.8
2023-02-24T17:59:36.587Z,4.9
2023-02-24T18:00:49.687Z,4.8
2023-02-24T18:02:03.001Z,4.8
2023-02-24T18:03:15.839Z,4.9
2023-02-24T18:04:28.684Z,4.9
2023-02-24T18:05:41.775Z,4.9
2023-02-24T18:06:54.696Z,4.9
2023-02-24T18:08:07.717Z,4.9
2023-02-24T18:09:20.785Z,4.9
2023-02-24T18:10:33.733Z,4.9
2023-02-24T18:11:46.688Z,4.9
2023-02-24T18:12:59.716Z,4.9
2023-02-24T18:14:12.717Z,4.9
2023-02-24T18:15:25.699Z,4.9
2023-02-24T18:16:38.438Z,5
2023-02-24T18:17:51.685Z,5.1
2023-02-24T18:19:04.722Z,5.1
2023-02-24T18:20:17.419Z,5
2023-02-24T18:21:30.713Z,5
2023-02-24T18:22:43.558Z,5.1
2023-02-24T18:23:56.683Z,5.1
2023-02-24T18:25:09.606Z,5.1
2023-02-24T18:26:23.963Z,5.1
2023-02-24T18:27:35.861Z,5.1
2023-02-24T18:28:48.709Z,5.1
2023-02-24T18:30:01.787Z,5.1
2023-02-24T18:31:14.631Z,5.1
2023-02-24T18:32:27.856Z,5.1
2023-02-24T18:33:40.787Z,5.1
2023-02-24T18:34:53.665Z,5.1
2023-02-24T18:36:06.726Z,4.9
2023-02-24T18:37:19.786Z,4.9
2023-02-24T18:38:32.903Z,4.9
2023-02-24T18:39:45.707Z,5
2023-02-24T18:40:58.709Z,5.1
2023-02-24T18:42:11.827Z,5.1
2023-02-24T18:43:24.742Z,4.9
2023-02-24T18:44:37.690Z,4.9
2023-02-24T18:45:50.749Z,4.9
2023-02-24T18:47:03.770Z,4.9
2023-02-24T18:48:16.732Z,4.9
2023-02-24T18:49:29.755Z,4.9
2023-02-24T18:50:42.728Z,4.9
2023-02-24T18:51:55.728Z,4.9
2023-02-24T18:53:08.710Z,4.9
2023-02-24T18:54:21.747Z,4.9
2023-02-24T18:55:34.742Z,4.9
2023-02-24T18:56:47.929Z,4.9
2023-02-24T18:58:00.745Z,4.9
2023-02-24T18:59:13.741Z,4.9
2023-02-24T19:00:26.735Z,4.9
2023-02-24T19:01:39.776Z,4.9
2023-02-24T19:02:52.854Z,4.9
2023-02-24T19:04:05.757Z,4.9
2023-02-24T19:05:18.754Z,4.9
2023-02-24T19:06:31.735Z,4.9
2023-02-24T19:07:44.750Z,4.9
2023-02-24T19:08:57.699Z,4.9
2023-02-24T19:10:10.798Z,4.9
2023-02-24T19:11:23.737Z,4.9
2023-02-24T19:12:36.821Z,4.9
2023-02-24T19:13:50.081Z,4.9
2023-02-24T19:15:02.714Z,4.9
2023-02-24T19:16:15.843Z,4.9
2023-02-24T19:17:28.724Z,4.9
2023-02-24T19:18:41.750Z,4.9
2023-02-24T19:19:54.769Z,4.9
2023-02-24T19:21:07.705Z,4.9
2023-02-24T19:22:20.745Z,4.9
2023-02-24T19:23:33.873Z,4.8
2023-02-24T19:24:46.751Z,4.8
2023-02-24T19:25:59.756Z,4.8
2023-02-24T19:27:12.759Z,4.8
2023-02-24T19:28:25.764Z,4.8
2023-02-24T19:29:38.774Z,4.8
2023-02-24T19:30:51.761Z,4.8
2023-02-24T19:32:04.933Z,4.8
2023-02-24T19:33:17.714Z,4.8
2023-02-24T19:34:31.087Z,4.7
2023-02-24T19:35:43.760Z,4.7
2023-02-24T19:36:56.783Z,4.7
2023-02-24T19:38:09.765Z,4.7
2023-02-24T19:39:22.777Z,4.7
2023-02-24T19:40:35.736Z,4.7
2023-02-24T19:41:49.862Z,4.7
2023-02-24T19:43:01.750Z,4.7
2023-02-24T19:44:14.753Z,4.7
2023-02-24T19:45:27.498Z,4.7
2023-02-24T19:46:40.761Z,4.7
2023-02-24T19:47:53.729Z,4.7
2023-02-24T19:49:06.780Z,4.7
2023-02-24T19:50:19.781Z,4.7
2023-02-24T19:51:32.751Z,4.7
2023-02-24T19:52:45.754Z,4.7
2023-02-24T19:53:58.779Z,4.7
2023-02-24T19:55:11.762Z,4.7
2023-02-24T19:56:24.931Z,4.7
2023-02-24T19:57:37.738Z,4.7
2023-02-24T19:58:50.753Z,4.7
2023-02-24T20:00:04.071Z,4.7
2023-02-24T20:01:16.812Z,4.7
2023-02-24T20:02:29.801Z,4.7
2023-02-24T20:03:42.816Z,4.7
2023-02-24T20:04:55.794Z,4.7
2023-02-24T20:06:08.791Z,4.7
2023-02-24T20:07:21.886Z,4.7
2023-02-24T20:08:34.932Z,4.7
2023-02-24T20:09:47.555Z,4.7
2023-02-24T20:14:39.738Z,4.9
2023-02-24T20:15:52.783Z,4.8
2023-02-24T20:17:06.085Z,4.7
2023-02-24T20:18:18.777Z,4.7
2023-02-24T20:19:31.803Z,4.7
2023-02-24T20:20:44.452Z,4.6
2023-02-24T20:21:57.632Z,4.5
2023-02-24T20:23:10.841Z,4.4
2023-02-24T20:24:23.478Z,4.3
2023-02-24T20:25:36.801Z,4.3
2023-02-24T20:26:49.760Z,4.2
2023-02-24T20:28:02.807Z,4.1
2023-02-24T20:29:15.793Z,4.1
2023-02-24T20:30:28.800Z,4.1
2023-02-24T20:31:42.064Z,4
2023-02-24T20:32:55.020Z,4
2023-02-24T20:34:07.830Z,4.1
2023-02-24T20:35:21.070Z,4.1
2023-02-24T20:36:34.150Z,4.1
2023-02-24T20:37:46.785Z,4
2023-02-24T20:38:59.661Z,3.9
2023-02-24T20:40:12.769Z,4
2023-02-24T20:41:25.679Z,3.8
2023-02-24T20:42:38.799Z,3.8
2023-02-24T20:43:51.806Z,3.8
2023-02-24T20:45:04.828Z,3.7
2023-02-24T20:46:17.863Z,3.7
2023-02-24T20:47:30.956Z,3.6
2023-02-24T20:48:43.823Z,3.6
2023-02-24T20:49:56.847Z,3.6
2023-02-24T20:51:10.173Z,3.6
2023-02-24T20:52:22.789Z,3.6
2023-02-24T20:53:42.042Z,3.6
2023-02-24T20:54:48.794Z,3.4
2023-02-24T20:56:02.138Z,3.4
2023-02-24T20:57:14.841Z,3.4
2023-02-24T20:58:27.785Z,3.4
2023-02-24T20:59:40.796Z,3.4
2023-02-24T21:00:53.880Z,3.4
2023-02-24T21:02:06.696Z,3.4
2023-02-24T21:03:20.166Z,3.4
2023-02-24T21:04:32.842Z,3.4
2023-02-24T21:05:45.809Z,3.4
2023-02-24T21:06:58.509Z,3.4
2023-02-24T21:08:11.849Z,3.4
2023-02-24T21:09:24.822Z,3.4
2023-02-24T21:10:37.826Z,3.4
2023-02-24T21:11:50.731Z,3.3
2023-02-24T21:13:03.818Z,3.3
2023-02-24T21:14:16.855Z,3.3
2023-02-24T21:15:30.033Z,3.3
2023-02-24T21:16:42.854Z,3.3
2023-02-24T21:17:55.528Z,3.3
2023-02-24T21:19:08.530Z,3.3
2023-02-24T21:20:22.032Z,3.3
2023-02-24T21:21:34.910Z,3.3
2023-02-24T21:22:47.722Z,3.2
2023-02-24T21:24:00.856Z,3.2
2023-02-24T21:25:13.893Z,3.2
2023-02-24T21:26:27.116Z,3.2
2023-02-24T21:27:39.904Z,3.2
2023-02-24T21:28:53.492Z,3.2
2023-02-24T21:30:05.703Z,3.2
2023-02-24T21:31:18.922Z,3.2
2023-02-24T21:32:31.877Z,3.2
2023-02-24T21:33:44.869Z,3.2
2023-02-24T21:34:58.038Z,3.2
2023-02-24T21:36:10.864Z,3.2
2023-02-24T21:37:23.876Z,3.2
2023-02-24T21:38:36.858Z,3.2
2023-02-24T21:39:49.877Z,3.2
2023-02-24T21:41:02.853Z,3.2
2023-02-24T21:42:15.853Z,3.2
2023-02-24T21:43:28.854Z,3.2
2023-02-24T21:44:44.204Z,3.2
2023-02-24T21:45:54.872Z,3.1
2023-02-24T21:47:08.025Z,3.1
2023-02-24T21:48:20.863Z,3.1
2023-02-24T21:49:33.722Z,3.1
2023-02-24T21:50:46.866Z,3.1
2023-02-24T21:51:59.891Z,3.1
2023-02-24T21:53:12.869Z,3.1
2023-02-24T21:54:25.867Z,3.1
2023-02-24T21:55:38.855Z,3.1
2023-02-24T21:56:51.867Z,3.1
2023-02-24T21:58:04.914Z,3.1
2023-02-24T21:59:18.090Z,3.1
2023-02-24T22:00:30.879Z,3.1
2023-02-24T22:01:44.188Z,3.1
2023-02-24T22:02:56.813Z,3.1
2023-02-24T22:04:09.893Z,3.1
2023-02-24T22:05:22.901Z,3.1
2023-02-24T22:06:36.259Z,3.1
2023-02-24T22:07:49.882Z,3.1
2023-02-24T22:09:01.903Z,3.1
2023-02-24T22:10:15.688Z,3.2
2023-02-24T22:11:27.891Z,3.2
2023-02-24T22:12:40.875Z,3.2
2023-02-24T22:13:53.842Z,3.2
2023-02-24T22:15:06.875Z,3.2
2023-02-24T22:16:20.025Z,3.2
2023-02-24T22:17:32.733Z,3.3
2023-02-24T22:18:45.735Z,3.4
2023-02-24T22:19:58.864Z,3.4
2023-02-24T22:21:11.912Z,3.3
2023-02-24T22:22:24.743Z,3.3
2023-02-24T22:23:37.853Z,3.3
2023-02-24T22:24:50.822Z,3.3
2023-02-24T22:26:03.825Z,3.3
2023-02-24T22:27:16.873Z,3.3
2023-02-24T22:28:29.863Z,3.3
2023-02-24T22:29:42.874Z,3.3
2023-02-24T22:30:55.983Z,3.3
2023-02-24T22:32:09.026Z,3.3
2023-02-24T22:33:21.910Z,3.4
2023-02-24T22:34:34.861Z,3.4
2023-02-24T22:35:47.884Z,3.4
2023-02-24T22:37:00.921Z,3.4
2023-02-24T22:38:13.865Z,3.4
2023-02-24T22:39:26.868Z,3.4
2023-02-24T22:40:39.870Z,3.4
2023-02-24T22:41:52.937Z,3.4
2023-02-24T22:43:05.887Z,3.4
2023-02-24T22:44:18.919Z,3.4
2023-02-24T22:45:32.062Z,3.4
2023-02-24T22:46:44.790Z,3.4
2023-02-24T22:47:57.949Z,3.4
2023-02-24T22:49:10.893Z,3.4
2023-02-24T22:50:23.857Z,3.4
2023-02-24T22:51:36.902Z,3.4
2023-02-24T22:52:49.900Z,3.4
2023-02-24T22:54:02.884Z,3.4
2023-02-24T22:55:15.913Z,3.4
2023-02-24T22:56:29.005Z,3.4
2023-02-24T22:57:41.868Z,3.4
2023-02-24T22:58:54.851Z,3.4
2023-02-24T23:00:08.637Z,3.4
2023-02-24T23:01:20.898Z,3.4
2023-02-24T23:02:33.894Z,3.4
2023-02-24T23:03:46.977Z,3.4
2023-02-24T23:04:59.883Z,3.4
2023-02-24T23:06:12.899Z,3.4
2023-02-24T23:07:25.912Z,3.4
2023-02-24T23:08:38.879Z,3.4
2023-02-24T23:09:51.926Z,3.4
2023-02-24T23:11:04.907Z,3.4
2023-02-24T23:12:18.031Z,3.4
2023-02-24T23:13:30.923Z,3.4
2023-02-24T23:14:43.915Z,3.4
2023-02-24T23:15:57.484Z,3.4
2023-02-24T23:17:10.113Z,3.4
2023-02-24T23:18:22.888Z,3.4
2023-02-24T23:19:35.909Z,3.4
2023-02-24T23:20:48.934Z,3.4
2023-02-24T23:22:01.886Z,3.4
2023-02-24T23:23:15.060Z,3.3
2023-02-24T23:24:27.916Z,3.3
2023-02-24T23:25:40.932Z,3.3
2023-02-24T23:26:54.129Z,3.3
2023-02-24T23:28:06.915Z,3.3
2023-02-24T23:29:19.917Z,3.3
2023-02-24T23:30:33.159Z,3.3
2023-02-24T23:31:46.025Z,3.3
2023-02-24T23:32:58.916Z,3.3
2023-02-24T23:34:11.982Z,3.3
2023-02-24T23:35:24.923Z,3.3
2023-02-24T23:36:37.943Z,3.3
2023-02-24T23:37:50.894Z,3.3
2023-02-24T23:39:03.928Z,3.3
2023-02-24T23:40:16.782Z,3.3
2023-02-24T23:41:29.934Z,3.3
2023-02-24T23:42:42.953Z,3.3
2023-02-24T23:43:55.920Z,3.3
2023-02-24T23:45:08.933Z,3.3
2023-02-24T23:46:22.244Z,3.3
2023-02-24T23:47:34.927Z,3.3
2023-02-24T23:48:47.921Z,3.3
2023-02-24T23:50:00.970Z,3.3
2023-02-24T23:51:13.962Z,3.3
2023-02-24T23:52:26.960Z,3.3
2023-02-24T23:53:40.106Z,3.3
2023-02-24T23:54:52.966Z,3.3
2023-02-24T23:56:05.946Z,3.3
2023-02-24T23:57:18.922Z,3.3
2023-02-24T23:58:31.942Z,3.3
2023-02-24T23:59:44.956Z,3.3
